Time;durP1;ratioP1;P1;durP2;ratioP2;P2;SDS_P1;SDS_P2;PMS_P1;PMS_P2;Temp;Humidity;BMP_temperature;BMP_pressure;BME280_temperature;BME280_humidity;BME280_pressure;Samples;Min_cycle;Max_cycle;Signal;HPM_P1;HPM_P2
2024/01/24 00:02:17;;;;;;;9.85;7.62;;;;;;;10.50;62.92;102437.88;143724;572;47010;-72
2024/01/24 00:04:44;;;;;;;14.65;9.23;;;;;;;10.49;62.62;102438.88;143724;608;47004;-72
2024/01/24 00:07:10;;;;;;;11.55;7.87;;;;;;;10.46;62.58;102438.19;143724;569;47004;-72
2024/01/24 00:09:36;;;;;;;13.00;9.13;;;;;;;10.39;62.88;102437.16;143722;605;47006;-72
2024/01/24 00:12:03;;;;;;;14.68;9.82;;;;;;;10.35;63.03;102443.78;143726;590;47002;-72
2024/01/24 00:14:29;;;;;;;13.15;9.80;;;;;;;10.39;62.71;102447.03;143722;584;47006;-72
2024/01/24 00:16:56;;;;;;;15.45;10.60;;;;;;;10.49;62.50;102442.44;143721;575;47004;-71
2024/01/24 00:19:22;;;;;;;15.95;12.13;;;;;;;10.53;62.51;102441.09;143725;616;46006;-72
2024/01/24 00:21:48;;;;;;;15.95;11.88;;;;;;;10.50;62.78;102445.94;143723;568;47002;-72
2024/01/24 00:24:15;;;;;;;15.85;9.82;;;;;;;10.52;62.91;102442.09;143723;569;47008;-71
2024/01/24 00:26:41;;;;;;;16.67;10.90;;;;;;;10.55;62.88;102439.09;143721;637;47004;-71
2024/01/24 00:29:08;;;;;;;17.35;12.10;;;;;;;10.53;63.05;102451.84;143723;622;47007;-71
2024/01/24 00:31:34;;;;;;;17.85;11.80;;;;;;;10.56;63.11;102442.66;143727;606;47000;-71
2024/01/24 00:34:00;;;;;;;16.62;11.80;;;;;;;10.61;63.09;102441.19;143721;589;47010;-72
2024/01/24 00:36:26;;;;;;;17.42;11.32;;;;;;;10.65;63.11;102451.63;143723;573;47008;-71
2024/01/24 00:38:53;;;;;;;16.45;10.05;;;;;;;10.62;63.61;102444.69;143722;567;47006;-72
2024/01/24 00:41:19;;;;;;;15.40;11.05;;;;;;;10.65;63.71;102446.25;143722;566;47004;-71
2024/01/24 00:43:45;;;;;;;14.98;11.52;;;;;;;10.70;63.58;102450.16;143722;589;47010;-71
2024/01/24 00:46:12;;;;;;;17.75;12.52;;;;;;;10.66;63.60;102448.75;143724;582;46010;-71
2024/01/24 00:48:38;;;;;;;17.95;13.10;;;;;;;10.66;63.77;102456.81;143723;604;47006;-72
2024/01/24 00:51:05;;;;;;;18.02;12.60;;;;;;;10.65;63.98;102459.69;143726;574;47000;-72
2024/01/24 00:53:34;;;;;;;17.23;11.68;;;;;;;10.62;64.19;102455.44;143725;577;47010;-71
2024/01/24 00:56:01;;;;;;;15.13;9.80;;;;;;;10.58;63.58;102462.16;143721;587;47006;-72
2024/01/24 00:58:27;;;;;;;13.50;9.05;;;;;;;10.65;63.49;102460.50;143722;599;47009;-72
2024/01/24 01:00:53;;;;;;;15.43;9.98;;;;;;;10.66;63.94;102470.25;143725;677;47002;-72
2024/01/24 01:03:20;;;;;;;12.50;9.55;;;;;;;10.67;64.28;102460.37;143723;600;47010;-72
2024/01/24 01:05:46;;;;;;;12.73;8.93;;;;;;;10.65;63.78;102463.19;143723;647;48926;-72
2024/01/24 01:08:13;;;;;;;15.93;9.77;;;;;;;10.68;63.81;102468.25;143726;568;46008;-72
2024/01/24 01:10:40;;;;;;;15.02;9.43;;;;;;;10.69;63.73;102474.47;143722;634;47004;-72
2024/01/24 01:13:06;;;;;;;17.70;9.45;;;;;;;10.72;63.77;102460.72;143721;621;47011;-72
2024/01/24 01:15:32;;;;;;;13.50;10.43;;;;;;;10.74;63.67;102456.91;143720;603;47010;-72
2024/01/24 01:17:58;;;;;;;14.35;9.45;;;;;;;10.67;63.99;102453.13;143722;579;46008;-71
2024/01/24 01:20:25;;;;;;;13.02;8.40;;;;;;;10.64;64.50;102460.69;143724;589;47006;-72
2024/01/24 01:22:51;;;;;;;12.85;8.77;;;;;;;10.55;65.19;102462.47;143721;595;47013;-72
2024/01/24 01:25:18;;;;;;;10.90;7.53;;;;;;;10.51;65.59;102464.59;143721;607;47006;-72
2024/01/24 01:27:44;;;;;;;10.00;6.75;;;;;;;10.51;66.14;102463.75;143723;578;47008;-73
2024/01/24 01:30:11;;;;;;;8.75;6.90;;;;;;;10.53;65.82;102456.41;143724;617;47004;-72
2024/01/24 01:32:38;;;;;;;8.70;6.72;;;;;;;10.52;66.17;102460.91;143722;598;47010;-73
2024/01/24 01:35:06;;;;;;;8.73;7.03;;;;;;;10.44;66.75;102458.16;143720;620;47013;-73
2024/01/24 01:37:33;;;;;;;9.18;6.62;;;;;;;10.38;66.73;102461.44;143724;588;46918;-72
2024/01/24 01:39:59;;;;;;;9.82;7.00;;;;;;;10.30;66.81;102452.31;143723;600;47004;-73
2024/01/24 01:42:26;;;;;;;8.63;6.22;;;;;;;10.37;66.39;102457.06;143722;584;47012;-73
2024/01/24 01:44:52;;;;;;;8.23;6.28;;;;;;;10.29;66.76;102455.12;143722;582;47006;-73
2024/01/24 01:47:20;;;;;;;10.45;6.60;;;;;;;10.14;66.83;102454.84;143722;572;47008;-73
2024/01/24 01:49:47;;;;;;;12.50;6.50;;;;;;;10.16;67.11;102464.44;143721;566;47006;-73
2024/01/24 01:52:15;;;;;;;10.05;6.55;;;;;;;10.21;66.66;102468.50;143723;599;47011;-73
2024/01/24 01:54:43;;;;;;;10.80;7.22;;;;;;;10.14;66.87;102458.34;143719;593;47926;-73
2024/01/24 01:57:11;;;;;;;8.85;6.78;;;;;;;9.97;67.66;102461.88;143721;568;47008;-73
2024/01/24 01:59:40;;;;;;;11.75;6.87;;;;;;;9.92;68.07;102451.59;143724;588;47007;-73
2024/01/24 04:02:35;;;;;;;9.88;7.25;;;;;;;9.45;64.45;102482.06;143728;593;47010;-73
2024/01/24 04:05:01;;;;;;;8.05;5.50;;;;;;;9.47;64.27;102474.72;143721;593;47006;-73
2024/01/24 04:07:28;;;;;;;8.10;6.05;;;;;;;9.47;64.37;102503.34;143723;644;46930;-74
2024/01/24 04:09:54;;;;;;;8.63;6.37;;;;;;;9.45;64.10;102497.28;143720;692;47004;-73
2024/01/24 04:12:20;;;;;;;11.82;5.82;;;;;;;9.44;64.28;102501.81;143721;607;47012;-73
2024/01/24 04:14:47;;;;;;;8.80;6.03;;;;;;;9.39;64.69;102496.91;143723;722;47004;-73
2024/01/24 04:17:13;;;;;;;9.75;6.87;;;;;;;9.34;64.51;102498.34;143723;614;47008;-72
2024/01/24 04:19:40;;;;;;;11.43;7.57;;;;;;;9.37;64.94;102501.56;143725;568;47006;-73
2024/01/24 04:22:07;;;;;;;8.95;7.00;;;;;;;9.32;64.86;102503.00;143723;610;46010;-73
2024/01/24 04:24:34;;;;;;;10.13;6.57;;;;;;;9.37;64.63;102500.72;143722;592;47006;-73
2024/01/24 04:27:00;;;;;;;11.20;6.22;;;;;;;9.31;64.52;102498.63;143724;600;46009;-74
2024/01/24 04:29:26;;;;;;;9.38;6.60;;;;;;;9.29;64.92;102503.28;143725;594;47004;-73
2024/01/24 04:31:53;;;;;;;10.88;6.47;;;;;;;9.36;64.81;102509.75;143722;572;47012;-73
2024/01/24 04:34:19;;;;;;;6.95;5.82;;;;;;;9.35;64.82;102521.50;143722;589;47006;-73
2024/01/24 04:36:46;;;;;;;8.95;6.05;;;;;;;9.31;64.96;102510.19;143724;599;47008;-74
2024/01/24 04:39:12;;;;;;;8.38;5.85;;;;;;;9.31;65.03;102523.59;143722;577;47004;-73
2024/01/24 04:41:38;;;;;;;8.63;6.10;;;;;;;9.43;64.53;102534.16;143721;573;47010;-73
2024/01/24 04:44:05;;;;;;;8.73;7.03;;;;;;;9.51;64.68;102529.75;143719;774;47012;-73
2024/01/24 04:46:31;;;;;;;8.93;6.40;;;;;;;9.43;64.74;102528.81;143724;601;46008;-73
2024/01/24 04:48:58;;;;;;;8.43;6.80;;;;;;;9.34;64.51;102534.03;143723;572;47006;-74
2024/01/24 04:51:28;;;;;;;10.65;7.65;;;;;;;9.37;64.63;102528.37;143724;577;46012;-73
2024/01/24 04:53:54;;;;;;;10.98;6.87;;;;;;;9.34;64.62;102546.62;143722;678;47006;-72
2024/01/24 04:56:21;;;;;;;10.73;7.15;;;;;;;9.36;64.63;102544.59;143722;605;47008;-73
2024/01/24 04:58:47;;;;;;;8.38;6.80;;;;;;;9.38;64.72;102548.00;143723;688;47004;-73
2024/01/24 05:01:13;;;;;;;9.48;7.68;;;;;;;9.40;64.73;102565.66;143724;610;47010;-73
2024/01/24 05:03:40;;;;;;;9.98;8.45;;;;;;;9.31;64.59;102565.66;143722;591;47006;-73
2024/01/24 05:06:07;;;;;;;9.15;6.68;;;;;;;9.24;64.84;102568.09;143725;586;46008;-73
2024/01/24 05:08:33;;;;;;;10.07;7.43;;;;;;;9.25;64.92;102578.66;143722;584;47004;-73
2024/01/24 05:10:59;;;;;;;10.10;7.12;;;;;;;9.28;65.13;102582.03;143722;566;47010;-73
2024/01/24 05:13:26;;;;;;;9.15;6.53;;;;;;;9.32;65.06;102586.13;143722;593;47006;-74
2024/01/24 05:15:52;;;;;;;9.45;7.05;;;;;;;9.22;65.17;102588.81;143724;606;47002;-73
2024/01/24 05:18:18;;;;;;;8.50;6.70;;;;;;;9.17;65.33;102585.72;143724;625;47002;-74
2024/01/24 05:20:46;;;;;;;10.10;7.00;;;;;;;9.16;65.37;102592.06;143722;628;47012;-73
2024/01/24 05:23:12;;;;;;;9.63;6.87;;;;;;;9.09;65.34;102586.44;143721;588;47006;-74
2024/01/24 05:25:40;;;;;;;8.15;6.45;;;;;;;9.04;65.50;102586.88;143724;584;47008;-73
2024/01/24 05:28:06;;;;;;;8.85;6.87;;;;;;;9.20;65.18;102580.06;143724;598;47007;-73
2024/01/24 05:30:32;;;;;;;9.85;7.22;;;;;;;9.23;65.09;102587.84;143722;568;47012;-73
2024/01/24 05:33:00;;;;;;;8.57;6.28;;;;;;;9.31;64.60;102590.62;143721;611;47006;-73
2024/01/24 05:35:26;;;;;;;7.87;6.43;;;;;;;9.27;64.58;102585.72;143723;579;46008;-73
2024/01/24 05:37:52;;;;;;;10.68;6.72;;;;;;;9.29;64.37;102587.25;143727;572;46011;-72
2024/01/24 05:40:18;;;;;;;9.57;6.70;;;;;;;9.19;64.37;102583.75;143725;581;46025;-72
2024/01/24 05:42:45;;;;;;;9.45;7.10;;;;;;;9.10;64.78;102586.28;143721;576;47007;-71
2024/01/24 05:45:11;;;;;;;8.98;6.87;;;;;;;9.12;64.42;102586.16;143721;615;47004;-72
2024/01/24 05:47:38;;;;;;;9.20;6.87;;;;;;;9.11;64.74;102581.78;143723;632;47006;-71
2024/01/24 05:50:10;;;;;;;10.57;6.47;;;;;;;9.17;64.09;102589.25;143720;607;48926;-72
2024/01/24 05:52:39;;;;;;;9.55;6.72;;;;;;;9.17;63.91;102585.72;143722;598;47006;-71
2024/01/24 05:55:06;;;;;;;11.70;8.27;;;;;;;9.09;64.13;102594.47;143723;587;48002;-70
2024/01/24 05:57:33;;;;;;;8.95;7.97;;;;;;;9.10;64.00;102591.63;143723;588;47006;-71
2024/01/24 05:59:59;;;;;;;12.73;9.90;;;;;;;9.16;63.95;102602.78;143720;584;47010;-71
2024/01/24 06:02:26;;;;;;;11.48;9.13;;;;;;;9.18;64.08;102600.81;143723;645;47002;-71
2024/01/24 06:04:52;;;;;;;11.55;9.15;;;;;;;9.20;63.88;102605.03;143723;574;47006;-71
2024/01/24 06:07:18;;;;;;;13.45;7.95;;;;;;;9.30;63.78;102601.50;143724;642;47002;-72
2024/01/24 06:09:45;;;;;;;11.88;8.88;;;;;;;9.34;63.60;102597.56;143722;610;47008;-71
2024/01/24 06:12:11;;;;;;;10.38;8.18;;;;;;;9.46;63.61;102603.59;143723;733;46011;-70
2024/01/24 06:14:39;;;;;;;16.65;8.85;;;;;;;9.40;64.03;102596.97;143722;617;47006;-71
2024/01/24 06:17:05;;;;;;;13.52;7.85;;;;;;;9.37;63.91;102600.78;143724;650;47004;-71
2024/01/24 06:19:32;;;;;;;13.95;8.20;;;;;;;9.35;64.08;102600.09;143724;598;47008;-70
2024/01/24 06:21:58;;;;;;;12.43;9.05;;;;;;;9.32;63.86;102599.53;143722;583;47006;-71
2024/01/24 06:24:25;;;;;;;14.85;8.43;;;;;;;9.39;63.71;102614.91;143722;579;47008;-71
2024/01/24 06:26:51;;;;;;;10.48;7.68;;;;;;;9.44;63.57;102609.09;143724;584;47004;-72
2024/01/24 06:29:19;;;;;;;9.55;7.18;;;;;;;9.47;63.40;102619.56;143725;724;46012;-72
2024/01/24 06:31:49;;;;;;;10.20;6.10;;;;;;;9.51;63.15;102628.16;143723;585;47006;-71
2024/01/24 06:34:16;;;;;;;7.60;5.70;;;;;;;9.53;63.16;102616.28;143726;657;46025;-72
2024/01/24 06:36:42;;;;;;;10.20;6.80;;;;;;;9.65;62.93;102624.16;143724;599;47004;-71
2024/01/24 06:39:09;;;;;;;10.48;6.85;;;;;;;9.75;62.85;102616.09;143725;658;47010;-71
2024/01/24 06:41:36;;;;;;;17.73;9.57;;;;;;;9.91;62.10;102621.69;143722;577;47006;-71
2024/01/24 06:44:05;;;;;;;14.75;8.20;;;;;;;9.90;62.22;102622.69;143723;665;46008;-71
2024/01/24 06:46:32;;;;;;;28.45;14.40;;;;;;;9.99;62.15;102620.94;143724;584;47004;-71
2024/01/24 06:48:59;;;;;;;54.40;22.98;;;;;;;10.01;61.89;102616.28;143722;597;47012;-71
2024/01/24 06:51:26;;;;;;;47.83;21.58;;;;;;;9.95;62.00;102625.78;143723;567;47006;-71
2024/01/24 06:53:52;;;;;;;65.55;25.88;;;;;;;10.08;61.96;102616.53;143722;597;46008;-72
2024/01/24 06:56:21;;;;;;;32.28;17.25;;;;;;;10.13;61.93;102631.19;143725;602;47004;-71
2024/01/24 06:58:47;;;;;;;24.30;13.88;;;;;;;10.26;61.76;102619.25;143722;577;47012;-71
2024/01/24 07:01:14;;;;;;;17.62;10.75;;;;;;;10.34;61.35;102621.19;143722;597;47006;-71
2024/01/24 07:03:40;;;;;;;18.17;10.85;;;;;;;10.45;61.18;102629.91;143724;606;46009;-71
2024/01/24 07:06:07;;;;;;;19.40;12.00;;;;;;;10.49;61.29;102635.00;143723;584;47004;-71
2024/01/24 07:08:34;;;;;;;20.23;13.20;;;;;;;10.52;61.05;102629.34;143720;644;47927;-70
2024/01/24 07:11:02;;;;;;;22.45;14.65;;;;;;;10.51;61.21;102641.06;143722;633;47004;-70
2024/01/24 07:13:28;;;;;;;24.37;13.40;;;;;;;10.60;61.02;102635.62;143724;591;47008;-72
2024/01/24 07:15:55;;;;;;;26.12;15.90;;;;;;;10.70;61.25;102632.03;143728;576;46004;-71
2024/01/24 07:18:22;;;;;;;26.33;16.05;;;;;;;10.71;61.37;102636.41;143726;604;46012;-72
2024/01/24 07:20:48;;;;;;;23.20;14.10;;;;;;;10.69;61.17;102641.09;143724;587;47004;-70
2024/01/24 07:23:15;;;;;;;13.77;9.93;;;;;;;10.86;60.76;102642.12;143724;608;47008;-72
2024/01/24 07:25:43;;;;;;;14.77;8.88;;;;;;;11.01;60.56;102651.34;143723;590;47005;-72
2024/01/24 07:28:09;;;;;;;16.20;8.65;;;;;;;10.99;60.80;102647.94;143723;616;47006;-72
2024/01/24 07:30:35;;;;;;;14.60;8.50;;;;;;;10.98;60.66;102638.19;143720;567;47006;-72
2024/01/24 07:33:03;;;;;;;11.15;7.85;;;;;;;11.09;60.63;102647.03;143724;652;47006;-73
2024/01/24 07:35:30;;;;;;;11.07;7.37;;;;;;;11.07;60.19;102639.09;143724;616;47004;-71
2024/01/24 07:37:56;;;;;;;11.80;7.55;;;;;;;11.22;60.53;102648.31;143722;568;47010;-72
2024/01/24 07:40:22;;;;;;;10.93;7.43;;;;;;;11.29;60.02;102645.88;143723;578;47007;-71
2024/01/24 07:42:49;;;;;;;9.32;7.25;;;;;;;11.32;59.95;102644.72;143724;604;47008;-74
2024/01/24 07:45:16;;;;;;;9.57;6.47;;;;;;;11.35;60.33;102642.53;143727;567;46012;-72
2024/01/24 07:47:42;;;;;;;8.60;7.07;;;;;;;11.50;60.06;102644.66;143725;618;46010;-74
2024/01/24 07:50:11;;;;;;;10.38;8.43;;;;;;;11.58;60.25;102643.87;143721;628;47006;-72
2024/01/24 07:52:37;;;;;;;9.88;7.93;;;;;;;11.67;59.50;102643.78;143724;629;46008;-76
2024/01/24 07:55:05;;;;;;;10.23;7.32;;;;;;;11.67;59.36;102648.31;143726;599;47004;-76
2024/01/24 07:57:32;;;;;;;12.90;8.23;;;;;;;11.74;59.56;102645.84;143723;574;46010;-76
2024/01/24 07:59:59;;;;;;;9.43;7.22;;;;;;;11.81;59.25;102638.81;143720;594;47006;-78
2024/01/24 08:02:25;;;;;;;11.63;6.90;;;;;;;11.91;59.21;102636.03;143725;599;46008;-75
2024/01/24 08:04:51;;;;;;;11.95;7.22;;;;;;;12.01;59.35;102631.38;143723;611;47004;-76
2024/01/24 08:07:18;;;;;;;10.88;8.65;;;;;;;12.19;59.18;102622.38;143725;566;47010;-75
2024/01/24 08:09:45;;;;;;;10.93;7.62;;;;;;;12.22;58.83;102638.22;143721;581;47006;-75
2024/01/24 08:12:12;;;;;;;8.63;6.85;;;;;;;12.31;58.96;102639.91;143725;589;47008;-76
2024/01/24 08:14:39;;;;;;;9.98;6.97;;;;;;;12.46;58.95;102640.16;143725;609;47004;-76
2024/01/24 08:17:06;;;;;;;12.48;7.90;;;;;;;12.58;58.92;102638.00;143728;568;47008;-77
2024/01/24 08:19:33;;;;;;;12.70;10.43;;;;;;;12.66;59.13;102640.69;143724;671;47004;-77
2024/01/24 08:22:00;;;;;;;12.57;8.95;;;;;;;12.78;58.98;102651.19;143725;582;47006;-76
2024/01/24 08:24:27;;;;;;;10.57;7.18;;;;;;;12.87;58.23;102640.25;143727;711;47004;-76
2024/01/24 08:26:53;;;;;;;11.50;7.07;;;;;;;12.91;58.21;102646.16;143724;593;47008;-77
2024/01/24 08:29:21;;;;;;;13.88;8.65;;;;;;;12.98;57.75;102640.94;143723;609;47004;-77
2024/01/24 08:31:47;;;;;;;14.98;8.98;;;;;;;13.07;57.52;102621.03;143726;721;46006;-76
2024/01/24 08:34:13;;;;;;;12.00;8.90;;;;;;;13.17;57.09;102620.84;143729;632;46007;-76
2024/01/24 08:36:40;;;;;;;13.70;6.53;;;;;;;13.35;57.15;102621.53;143726;610;47008;-77
2024/01/24 08:39:06;;;;;;;9.25;6.35;;;;;;;13.54;56.50;102614.09;143723;636;47004;-75
2024/01/24 08:41:36;;;;;;;12.50;9.52;;;;;;;13.70;55.95;102612.38;143727;579;46017;-75
2024/01/24 08:44:04;;;;;;;17.67;12.18;;;;;;;13.75;56.06;102597.38;143725;608;47004;-76
2024/01/24 08:46:31;;;;;;;10.70;8.55;;;;;;;13.82;55.80;102604.75;143727;641;46010;-76
2024/01/24 08:48:58;;;;;;;11.70;8.27;;;;;;;14.08;55.56;102602.66;143722;652;47004;-76
2024/01/24 08:51:29;;;;;;;13.68;9.52;;;;;;;14.15;55.26;102597.38;143723;570;47006;-77
2024/01/24 08:53:56;;;;;;;10.38;8.25;;;;;;;14.30;55.23;102586.63;143724;593;47002;-76
2024/01/24 08:56:22;;;;;;;9.50;7.35;;;;;;;14.48;54.94;102586.37;143721;567;47010;-76
2024/01/24 08:58:49;;;;;;;8.80;6.93;;;;;;;14.72;55.44;102589.97;143726;646;46004;-75
2024/01/24 09:01:15;;;;;;;9.45;7.10;;;;;;;14.88;54.84;102590.88;143727;633;46016;-76
2024/01/24 09:03:42;;;;;;;8.73;5.18;;;;;;;15.01;54.30;102582.97;143725;578;47010;-77
2024/01/24 09:06:08;;;;;;;12.88;8.13;;;;;;;17.33;51.89;102575.34;143725;657;47008;-75
2024/01/24 09:08:34;;;;;;;21.67;12.48;;;;;;;20.86;47.45;102572.97;143725;573;47004;-77
2024/01/24 09:11:01;;;;;;;14.90;8.85;;;;;;;23.59;42.92;102565.03;143725;635;47000;-75
2024/01/24 09:13:27;;;;;;;8.80;7.65;;;;;;;22.73;41.61;102568.25;143726;575;47002;-77
2024/01/24 09:15:55;;;;;;;12.27;8.15;;;;;;;19.46;44.51;102580.75;143726;572;46010;-74
2024/01/24 09:18:21;;;;;;;10.27;7.10;;;;;;;17.86;47.08;102574.81;143724;596;46004;-74
2024/01/24 09:20:48;;;;;;;9.85;5.07;;;;;;;19.37;45.69;102579.31;143726;597;46022;-75
2024/01/24 09:23:14;;;;;;;12.88;7.30;;;;;;;24.61;40.99;102582.94;143726;569;47000;-76
2024/01/24 09:25:41;;;;;;;13.00;7.28;;;;;;;28.27;36.50;102574.62;143725;609;47010;-76
2024/01/24 09:28:08;;;;;;;14.68;7.15;;;;;;;29.99;33.04;102562.16;143725;597;47004;-74
2024/01/24 09:30:35;;;;;;;24.02;7.82;;;;;;;30.69;31.16;102566.63;143727;601;47006;-77
2024/01/24 09:33:03;;;;;;;26.12;8.15;;;;;;;30.30;30.72;102573.03;143727;624;46007;-69
2024/01/24 09:35:30;;;;;;;11.95;6.97;;;;;;;29.38;31.26;102596.47;143726;608;46010;-74
2024/01/24 09:37:59;;;;;;;10.32;6.07;;;;;;;28.32;31.64;102607.00;143727;684;46024;-76
2024/01/24 09:40:26;;;;;;;14.23;7.62;;;;;;;27.24;32.48;102593.53;143722;706;46922;-76
2024/01/24 09:42:52;;;;;;;9.45;6.82;;;;;;;25.98;33.47;102595.41;143726;986;47006;-74
2024/01/24 09:45:22;;;;;;;9.07;5.72;;;;;;;25.04;35.35;102588.88;143723;594;47010;-76
2024/01/24 09:47:51;;;;;;;10.75;5.60;;;;;;;24.11;34.83;102590.00;143722;901;47004;-74
2024/01/24 09:50:18;;;;;;;11.38;6.15;;;;;;;23.69;36.17;102600.09;143725;567;47000;-76
2024/01/24 09:52:45;;;;;;;9.70;6.20;;;;;;;23.26;36.85;102588.47;143724;986;47002;-74
2024/01/24 09:55:15;;;;;;;7.30;5.43;;;;;;;22.78;36.99;102584.81;143725;588;47010;-76
2024/01/24 09:57:41;;;;;;;8.25;5.82;;;;;;;22.90;36.73;102581.28;143722;602;47002;-78
2024/01/24 10:00:09;;;;;;;15.73;5.95;;;;;;;22.90;37.47;102568.38;143725;688;46006;-76
2024/01/24 10:02:36;;;;;;;10.27;5.47;;;;;;;22.76;37.71;102577.91;143724;573;47002;-73
2024/01/24 10:05:07;;;;;;;9.25;5.75;;;;;;;22.48;38.66;102569.28;143724;585;47004;-74
2024/01/24 10:07:34;;;;;;;7.70;6.10;;;;;;;22.37;38.51;102559.91;143725;576;47008;-76
2024/01/24 10:10:07;;;;;;;9.02;5.82;;;;;;;22.41;37.90;102566.59;143726;576;47007;-74
2024/01/24 10:12:35;;;;;;;7.80;5.80;;;;;;;22.66;39.13;102554.69;143725;587;47004;-72
2024/01/24 10:15:02;;;;;;;7.32;5.40;;;;;;;23.10;38.90;102564.47;143719;583;51006;-72
2024/01/24 10:17:28;;;;;;;11.40;5.15;;;;;;;23.70;38.60;102562.53;143723;579;47004;-73
2024/01/24 10:19:55;;;;;;;9.27;5.47;;;;;;;23.71;37.79;102556.78;143717;575;51002;-71
2024/01/24 10:22:24;;;;;;;6.72;5.35;;;;;;;24.12;37.36;102561.47;143727;677;47002;-70
2024/01/24 10:24:53;;;;;;;6.50;4.65;;;;;;;24.54;37.52;102544.63;143724;656;46925;-69
2024/01/24 10:27:20;;;;;;;5.87;5.00;;;;;;;25.78;36.63;102543.69;143724;603;47004;-70
2024/01/24 10:29:46;;;;;;;7.43;4.95;;;;;;;27.22;35.39;102524.00;143723;605;47006;-71
2024/01/24 10:32:13;;;;;;;10.32;6.07;;;;;;;29.10;32.92;102510.16;143724;648;47003;-78
2024/01/24 10:34:39;;;;;;;7.80;5.25;;;;;;;30.69;31.11;102496.47;143724;581;47010;-74
2024/01/24 10:37:09;;;;;;;9.32;5.90;;;;;;;32.02;29.83;102506.16;143722;605;47004;-77
2024/01/24 10:39:37;;;;;;;10.15;6.12;;;;;;;29.85;31.30;102492.69;143727;598;46007;-78
2024/01/24 10:42:06;;;;;;;8.70;5.60;;;;;;;27.09;33.17;102495.81;143725;573;47002;-76
2024/01/24 10:44:35;;;;;;;8.13;5.47;;;;;;;25.60;34.92;102502.75;143720;572;49002;-76
2024/01/24 10:47:02;;;;;;;5.68;4.87;;;;;;;24.71;35.15;102484.22;143724;590;47005;-81
2024/01/24 10:49:32;;;;;;;6.55;4.82;;;;;;;24.29;35.51;102498.34;143726;570;47006;-77
2024/01/24 10:51:58;;;;;;;5.93;4.80;;;;;;;23.80;36.17;102494.13;143726;586;47002;-75
2024/01/24 10:54:28;;;;;;;9.05;5.00;;;;;;;23.61;36.66;102499.00;143722;612;47008;-77
2024/01/24 10:56:56;;;;;;;10.25;6.93;;;;;;;23.38;36.60;102475.22;143723;651;47004;-77
2024/01/24 10:59:25;;;;;;;10.38;8.32;;;;;;;23.33;37.32;102495.09;143725;577;46006;-76
2024/01/24 11:01:52;;;;;;;7.55;5.60;;;;;;;23.27;36.75;102488.69;143724;615;47004;-69
2024/01/24 11:04:24;;;;;;;8.60;4.57;;;;;;;23.31;37.28;102491.78;143726;586;46018;-69
2024/01/24 11:07:00;;;;;;;7.62;5.97;;;;;;;23.45;37.52;102493.19;143723;591;47004;-69
2024/01/24 11:10:07;;;;;;;9.20;6.55;;;;;;;23.09;36.95;102488.81;143725;618;47007;-69
2024/01/24 11:12:34;;;;;;;6.53;5.18;;;;;;;23.10;37.34;102487.72;143725;583;47002;-69
2024/01/24 11:15:08;;;;;;;8.65;5.22;;;;;;;23.41;36.75;102491.16;143724;588;47924;-67
2024/01/24 11:17:35;;;;;;;8.07;6.05;;;;;;;24.11;36.09;102492.00;143722;653;47004;-67
2024/01/24 11:20:09;;;;;;;6.97;5.22;;;;;;;24.87;35.74;102484.44;143723;573;47006;-68
2024/01/24 11:22:36;;;;;;;9.02;6.28;;;;;;;25.48;35.10;102484.47;143723;665;47004;-68
2024/01/24 11:25:04;;;;;;;8.00;6.10;;;;;;;26.37;34.27;102472.44;143727;589;46004;-69
2024/01/24 11:27:35;;;;;;;7.95;5.82;;;;;;;27.52;33.61;102476.41;143725;607;46008;-68
2024/01/24 11:30:16;;;;;;;10.25;6.05;;;;;;;28.63;31.95;102454.97;143724;602;47006;-69
2024/01/24 11:33:00;;;;;;;9.80;6.78;;;;;;;29.21;31.54;102450.94;143724;673;47002;-68
2024/01/24 11:35:28;;;;;;;9.40;6.00;;;;;;;29.58;30.75;102446.87;143726;577;47008;-68
2024/01/24 11:37:55;;;;;;;7.65;5.47;;;;;;;29.68;30.59;102450.69;143722;611;47004;-68
2024/01/24 11:40:23;;;;;;;11.10;6.43;;;;;;;29.25;30.79;102443.69;143726;603;47006;-68
2024/01/24 11:42:56;;;;;;;6.35;4.28;;;;;;;29.61;30.35;102434.41;143726;597;47002;-68
2024/01/24 11:45:24;;;;;;;10.32;6.00;;;;;;;28.97;30.50;102426.69;143724;602;47010;-67
2024/01/24 11:47:52;;;;;;;7.10;5.05;;;;;;;28.83;30.91;102431.16;143722;578;47005;-68
2024/01/24 11:50:19;;;;;;;6.65;4.82;;;;;;;28.41;30.92;102425.69;143725;595;46014;-68
2024/01/24 11:52:46;;;;;;;6.20;4.80;;;;;;;27.48;31.45;102422.87;143723;566;47002;-68
2024/01/24 11:55:12;;;;;;;7.28;4.55;;;;;;;26.29;32.46;102415.91;143724;576;47011;-70
2024/01/24 11:57:39;;;;;;;7.12;4.57;;;;;;;25.01;33.72;102427.19;143723;584;47002;-68
2024/01/24 12:00:06;;;;;;;10.95;4.65;;;;;;;23.76;34.96;102424.38;143725;597;46006;-69
2024/01/24 12:02:34;;;;;;;7.03;4.00;;;;;;;23.05;35.89;102427.31;143725;680;47004;-68
2024/01/24 12:05:00;;;;;;;9.00;5.25;;;;;;;22.63;36.27;102420.94;143726;594;47010;-70
2024/01/24 12:07:27;;;;;;;5.87;4.35;;;;;;;22.24;36.68;102413.13;143723;603;47004;-68
2024/01/24 12:09:54;;;;;;;6.72;4.95;;;;;;;21.83;37.06;102408.53;143721;597;47007;-69
2024/01/24 12:12:21;;;;;;;5.85;4.65;;;;;;;21.65;37.23;102407.53;143729;589;47008;-69
2024/01/24 12:14:47;;;;;;;6.32;4.40;;;;;;;21.56;37.80;102398.78;143724;582;47008;-69
2024/01/24 12:17:15;;;;;;;6.87;4.82;;;;;;;21.34;37.60;102393.00;143725;721;47008;-69
2024/01/24 12:19:45;;;;;;;7.68;5.20;;;;;;;21.04;38.05;102401.97;143723;566;46015;-70
2024/01/24 12:22:12;;;;;;;10.80;5.05;;;;;;;20.54;38.60;102409.19;143724;873;47002;-68
2024/01/24 12:24:42;;;;;;;7.35;5.03;;;;;;;20.23;38.96;102389.06;143725;589;47010;-68
2024/01/24 12:27:09;;;;;;;7.05;4.28;;;;;;;19.95;38.94;102395.81;143726;601;47004;-71
2024/01/24 12:29:35;;;;;;;6.18;4.30;;;;;;;19.89;39.30;102393.13;143726;613;47006;-65
2024/01/24 12:32:03;;;;;;;13.43;8.18;;;;;;;19.74;40.01;102407.88;143726;582;47002;-66
2024/01/24 12:34:30;;;;;;;7.80;5.93;;;;;;;19.61;39.71;102397.88;143721;567;47010;-66
2024/01/24 12:36:57;;;;;;;9.27;6.07;;;;;;;19.61;39.91;102394.31;143724;888;47004;-66
2024/01/24 12:39:33;;;;;;;11.23;8.02;;;;;;;19.53;39.71;102395.41;143726;985;47007;-67
2024/01/24 12:42:03;;;;;;;14.43;7.25;;;;;;;19.47;40.17;102405.28;143727;986;47002;-66
2024/01/24 12:44:29;;;;;;;8.23;6.25;;;;;;;19.34;40.19;102398.00;143724;585;47004;-67
2024/01/24 12:46:57;;;;;;;6.10;4.50;;;;;;;19.23;40.18;102405.00;143723;589;47004;-66
2024/01/24 12:49:24;;;;;;;13.98;9.32;;;;;;;19.22;40.94;102411.47;143726;572;47006;-66
2024/01/24 12:51:52;;;;;;;18.37;11.82;;;;;;;19.07;40.95;102408.16;143725;611;47004;-67
2024/01/24 12:54:18;;;;;;;9.52;6.50;;;;;;;19.00;40.96;102410.09;143724;567;49009;-67
2024/01/24 12:56:48;;;;;;;11.05;7.75;;;;;;;18.96;41.44;102406.97;143724;580;47004;-67
2024/01/24 12:59:15;;;;;;;10.90;7.60;;;;;;;18.75;41.48;102413.44;143724;566;47006;-69
2024/01/24 13:01:42;;;;;;;9.80;6.85;;;;;;;18.72;41.48;102417.44;143722;579;47004;-68
2024/01/24 13:04:08;;;;;;;11.82;6.53;;;;;;;18.71;41.84;102409.50;143723;642;47008;-68
2024/01/24 13:06:36;;;;;;;12.00;7.37;;;;;;;18.62;41.60;102409.69;143722;597;47004;-71
2024/01/24 13:09:03;;;;;;;9.25;7.57;;;;;;;18.58;41.63;102408.44;143725;568;46924;-67
2024/01/24 13:11:31;;;;;;;16.30;8.98;;;;;;;18.57;42.58;102411.38;143722;584;47002;-67
2024/01/24 13:13:57;;;;;;;10.43;6.80;;;;;;;18.61;42.37;102413.47;143724;611;47010;-67
2024/01/24 13:16:23;;;;;;;9.98;6.05;;;;;;;18.57;42.25;102416.84;143719;587;47004;-65
2024/01/24 13:18:50;;;;;;;8.05;5.95;;;;;;;18.55;42.08;102410.75;143723;592;47006;-64
2024/01/24 13:21:16;;;;;;;6.75;6.05;;;;;;;18.46;42.13;102407.41;143723;627;47002;-66
2024/01/24 13:23:43;;;;;;;8.52;6.82;;;;;;;18.44;42.15;102410.31;143724;579;46028;-67